createdAt,value
2023-05-05T00:00:14.965Z,5.75
2023-05-05T00:01:14.986Z,5.72
2023-05-05T00:02:14.988Z,5.77
2023-05-05T00:03:15.038Z,5.73
2023-05-05T00:04:15.014Z,5.74
2023-05-05T00:05:14.935Z,5.74
2023-05-05T00:06:14.930Z,5.69
2023-05-05T00:07:14.917Z,5.71
2023-05-05T00:08:14.916Z,5.72
2023-05-05T00:09:14.916Z,5.68
2023-05-05T00:10:14.915Z,5.53
2023-05-05T00:11:14.901Z,5.50
2023-05-05T00:12:14.923Z,5.54
2023-05-05T00:13:14.941Z,5.56
2023-05-05T00:14:14.877Z,5.45
2023-05-05T00:15:14.893Z,5.36
2023-05-05T00:16:14.884Z,5.48
2023-05-05T00:17:14.909Z,5.47
2023-05-05T00:18:14.863Z,5.30
2023-05-05T00:19:14.866Z,5.50
2023-05-05T00:20:14.849Z,5.36
2023-05-05T00:21:14.846Z,5.40
2023-05-05T00:22:14.829Z,5.40
2023-05-05T00:23:14.844Z,5.42
2023-05-05T00:24:14.843Z,5.35
2023-05-05T00:25:14.817Z,5.42
2023-05-05T00:26:14.797Z,5.46
2023-05-05T00:27:14.799Z,5.27
2023-05-05T00:28:14.818Z,5.34
2023-05-05T00:29:14.860Z,5.39
2023-05-05T00:30:14.862Z,5.36
2023-05-05T00:31:14.899Z,5.42
2023-05-05T00:32:14.881Z,5.29
2023-05-05T00:33:14.959Z,5.49
2023-05-05T00:34:14.899Z,5.44
2023-05-05T00:35:14.916Z,5.46
2023-05-05T00:36:14.979Z,5.36
2023-05-05T00:37:14.956Z,5.31
2023-05-05T00:38:14.954Z,5.39
2023-05-05T00:39:14.962Z,5.41
2023-05-05T00:40:14.943Z,5.41
2023-05-05T00:41:14.954Z,5.41
2023-05-05T00:42:14.996Z,5.42
2023-05-05T00:43:14.962Z,5.42
2023-05-05T00:44:14.922Z,5.43
2023-05-05T00:45:14.937Z,5.50
2023-05-05T00:46:14.965Z,5.53
2023-05-05T00:47:14.917Z,5.42
2023-05-05T00:48:14.914Z,5.44
2023-05-05T00:49:14.922Z,5.45
2023-05-05T00:50:14.889Z,5.47
2023-05-05T00:51:14.924Z,5.68
2023-05-05T00:52:14.888Z,5.42
2023-05-05T00:53:14.878Z,5.50
2023-05-05T00:54:14.864Z,5.32
2023-05-05T00:55:14.874Z,5.59
2023-05-05T00:56:14.840Z,5.54
2023-05-05T00:57:14.902Z,5.30
2023-05-05T00:58:14.864Z,5.34
2023-05-05T00:59:14.840Z,5.43
2023-05-05T01:00:14.828Z,5.43
2023-05-05T01:01:14.863Z,5.20
2023-05-05T01:02:14.822Z,5.20
2023-05-05T01:03:14.874Z,5.16
2023-05-05T01:04:14.804Z,5.12
2023-05-05T01:05:14.814Z,5.06
2023-05-05T01:06:14.789Z,4.95
2023-05-05T01:07:14.806Z,4.94
2023-05-05T01:08:14.785Z,5.02
2023-05-05T01:09:14.786Z,4.99
2023-05-05T01:10:20.119Z,4.97
2023-05-05T01:11:15.764Z,4.97
2023-05-05T01:12:14.753Z,4.99
2023-05-05T01:13:14.767Z,4.93
2023-05-05T01:14:14.782Z,4.96
2023-05-05T01:15:14.744Z,4.82
2023-05-05T01:16:14.807Z,4.93
2023-05-05T01:17:14.755Z,4.88
2023-05-05T01:18:14.733Z,4.92
2023-05-05T01:19:14.730Z,4.77
2023-05-05T01:20:14.721Z,4.74
2023-05-05T01:21:14.743Z,4.82
2023-05-05T01:22:14.710Z,4.84
2023-05-05T01:23:14.699Z,4.82
2023-05-05T01:24:14.714Z,4.75
2023-05-05T01:25:14.691Z,4.74
2023-05-05T01:26:14.673Z,4.75
2023-05-05T01:27:14.675Z,4.80
2023-05-05T01:28:14.674Z,4.77
2023-05-05T01:29:14.674Z,4.74
2023-05-05T01:30:14.663Z,4.65
2023-05-05T01:31:14.734Z,4.62
2023-05-05T01:32:14.649Z,4.63
2023-05-05T01:33:14.684Z,4.59
2023-05-05T01:34:14.641Z,4.64
2023-05-05T01:35:14.654Z,4.53
2023-05-05T01:36:14.621Z,4.54
2023-05-05T01:37:14.631Z,4.38
2023-05-05T01:38:14.626Z,4.45
2023-05-05T01:39:14.627Z,4.45
2023-05-05T01:40:14.640Z,4.43
2023-05-05T01:41:14.662Z,4.44
2023-05-05T01:42:14.676Z,4.40
2023-05-05T01:43:14.693Z,4.39
2023-05-05T01:44:14.706Z,4.25
2023-05-05T01:45:14.734Z,4.32
2023-05-05T01:46:14.878Z,4.30
2023-05-05T01:47:14.735Z,4.27
2023-05-05T01:48:14.759Z,4.22
2023-05-05T01:49:14.770Z,4.28
2023-05-05T01:50:14.789Z,4.37
2023-05-05T01:51:14.794Z,4.39
2023-05-05T01:52:14.817Z,4.28
2023-05-05T01:53:14.843Z,4.30
2023-05-05T01:54:14.884Z,4.32
2023-05-05T01:55:14.920Z,4.30
2023-05-05T01:56:14.992Z,4.32
2023-05-05T01:57:15.008Z,4.30
2023-05-05T01:58:15.032Z,4.26
2023-05-05T01:59:15.085Z,4.33
2023-05-05T02:00:15.072Z,4.18
2023-05-05T02:01:15.096Z,4.29
2023-05-05T02:02:15.072Z,4.18
2023-05-05T02:03:15.331Z,4.19
2023-05-05T02:04:15.102Z,4.08
2023-05-05T02:05:15.142Z,4.08
2023-05-05T02:06:15.158Z,4.22
2023-05-05T02:07:15.145Z,4.01
2023-05-05T02:08:15.167Z,4.10
2023-05-05T02:09:15.192Z,4.09
2023-05-05T02:10:15.181Z,4.09
2023-05-05T02:11:15.164Z,4.09
2023-05-05T02:12:15.200Z,4.09
2023-05-05T02:13:15.359Z,4.09
2023-05-05T02:14:15.164Z,4.11
2023-05-05T02:15:15.176Z,4.03
2023-05-05T02:16:15.190Z,3.99
2023-05-05T02:17:15.161Z,3.89
2023-05-05T02:18:15.177Z,3.91
2023-05-05T02:19:15.190Z,3.79
2023-05-05T02:20:15.141Z,3.86
2023-05-05T02:21:15.161Z,3.88
2023-05-05T02:22:15.130Z,3.81
2023-05-05T02:23:15.137Z,3.67
2023-05-05T02:24:15.132Z,3.66
2023-05-05T02:25:15.112Z,3.74
2023-05-05T02:26:15.099Z,3.67
2023-05-05T02:27:15.100Z,3.64
2023-05-05T02:28:15.118Z,3.64
2023-05-05T02:29:15.079Z,3.64
2023-05-05T02:30:15.080Z,3.56
2023-05-05T02:31:15.082Z,3.54
2023-05-05T02:32:15.067Z,3.49
2023-05-05T02:33:15.101Z,3.42
2023-05-05T02:34:15.094Z,3.47
2023-05-05T02:35:15.117Z,3.43
2023-05-05T02:36:15.169Z,3.39
2023-05-05T02:37:15.167Z,3.35
2023-05-05T02:38:15.184Z,3.28
2023-05-05T02:39:15.193Z,3.28
2023-05-05T02:40:15.193Z,3.20
2023-05-05T02:41:15.226Z,3.27
2023-05-05T02:42:15.275Z,3.22
2023-05-05T02:43:15.312Z,3.23
2023-05-05T02:44:15.258Z,3.19
2023-05-05T02:45:15.287Z,3.24
2023-05-05T02:46:15.317Z,3.18
2023-05-05T02:47:15.302Z,3.15
2023-05-05T02:48:15.352Z,3.17
2023-05-05T02:49:15.320Z,3.17
2023-05-05T02:50:15.356Z,3.17
2023-05-05T02:51:15.517Z,3.13
2023-05-05T02:52:15.370Z,3.06
2023-05-05T02:53:15.405Z,3.08
2023-05-05T02:54:15.469Z,3.14
2023-05-05T02:55:15.455Z,3.10
2023-05-05T02:56:15.454Z,3.00
2023-05-05T02:57:15.474Z,3.07
2023-05-05T02:58:15.483Z,3.05
2023-05-05T02:59:16.303Z,3.07
2023-05-05T03:00:15.497Z,3.02
2023-05-05T03:01:15.559Z,3.01
2023-05-05T03:02:15.563Z,3.01
2023-05-05T03:03:15.687Z,3.12
2023-05-05T03:04:15.577Z,3.02
2023-05-05T03:05:15.582Z,3.06
2023-05-05T03:06:15.618Z,3.06
2023-05-05T03:07:15.660Z,2.92
2023-05-05T03:08:15.708Z,2.95
2023-05-05T03:09:15.746Z,2.95
2023-05-05T03:10:15.846Z,2.99
2023-05-05T03:11:15.804Z,2.99
2023-05-05T03:12:15.858Z,3.02
2023-05-05T03:13:15.928Z,2.90
2023-05-05T03:14:15.866Z,2.85
2023-05-05T03:15:15.876Z,2.88
2023-05-05T03:16:15.932Z,2.89
2023-05-05T03:17:15.909Z,2.83
2023-05-05T03:18:15.930Z,2.80
2023-05-05T03:19:15.949Z,2.79
2023-05-05T03:20:15.982Z,2.83
2023-05-05T03:21:16.005Z,2.84
2023-05-05T03:22:16.031Z,2.86
2023-05-05T03:23:16.003Z,2.86
2023-05-05T03:24:15.983Z,2.86
2023-05-05T03:25:15.990Z,2.84
2023-05-05T03:26:16.012Z,2.89
2023-05-05T03:27:16.000Z,2.94
2023-05-05T03:28:16.005Z,2.89
2023-05-05T03:29:16.027Z,2.87
2023-05-05T03:30:15.994Z,2.86
2023-05-05T03:31:16.088Z,2.84
2023-05-05T03:32:16.009Z,2.84
2023-05-05T03:33:16.006Z,2.85
2023-05-05T03:34:15.978Z,2.79
2023-05-05T03:35:15.990Z,2.79
2023-05-05T03:36:15.973Z,2.82
2023-05-05T03:37:15.962Z,2.84
2023-05-05T03:38:15.976Z,2.79
2023-05-05T03:39:15.955Z,2.85
2023-05-05T03:40:15.946Z,2.80
2023-05-05T03:41:15.946Z,2.75
2023-05-05T03:42:15.943Z,2.76
2023-05-05T03:43:15.955Z,2.78
2023-05-05T03:44:15.946Z,2.74
2023-05-05T03:45:15.952Z,2.73
2023-05-05T03:46:16.134Z,2.74
2023-05-05T03:47:16.067Z,2.72
2023-05-05T03:48:16.123Z,2.76
2023-05-05T03:49:16.173Z,2.73
2023-05-05T03:50:16.196Z,2.80
2023-05-05T03:51:16.205Z,2.71
2023-05-05T03:52:16.243Z,2.73
2023-05-05T03:53:16.288Z,2.75
2023-05-05T03:54:16.307Z,2.74
2023-05-05T03:55:16.345Z,2.71
2023-05-05T03:56:16.366Z,2.74
2023-05-05T03:57:16.383Z,2.69
2023-05-05T03:58:16.403Z,2.70
2023-05-05T03:59:16.416Z,2.69
2023-05-05T04:00:16.433Z,2.75
2023-05-05T04:01:16.429Z,2.68
2023-05-05T04:02:18.473Z,2.66
2023-05-05T04:03:16.649Z,2.70
2023-05-05T04:04:16.535Z,2.74
2023-05-05T04:05:16.555Z,2.65
2023-05-05T04:06:16.547Z,2.73
2023-05-05T04:07:16.591Z,2.70
2023-05-05T04:08:16.597Z,2.70
2023-05-05T04:09:16.624Z,2.72
2023-05-05T04:10:16.621Z,2.73
2023-05-05T04:11:16.644Z,2.66
2023-05-05T04:12:16.663Z,2.73
2023-05-05T04:13:16.845Z,2.75
2023-05-05T04:14:16.718Z,2.76
2023-05-05T04:15:16.748Z,2.82
2023-05-05T04:16:16.795Z,2.75
2023-05-05T04:17:16.789Z,2.74
2023-05-05T04:18:16.826Z,2.79
2023-05-05T04:19:16.834Z,2.78
2023-05-05T04:20:16.872Z,2.74
2023-05-05T04:21:16.888Z,2.75
2023-05-05T04:22:16.904Z,2.78
2023-05-05T04:23:16.918Z,2.75
2023-05-05T04:24:16.948Z,2.75
2023-05-05T04:25:16.959Z,2.73
2023-05-05T04:26:16.991Z,2.80
2023-05-05T04:27:17.013Z,2.77
2023-05-05T04:28:17.329Z,2.79
2023-05-05T04:29:17.047Z,2.79
2023-05-05T04:30:17.080Z,2.88
2023-05-05T04:31:17.141Z,2.87
2023-05-05T04:32:17.108Z,2.82
2023-05-05T04:33:17.145Z,2.79
2023-05-05T04:34:17.160Z,2.77
2023-05-05T04:35:17.169Z,2.86
2023-05-05T04:36:17.200Z,2.72
2023-05-05T04:37:17.235Z,2.81
2023-05-05T04:38:17.275Z,2.75
2023-05-05T04:39:17.239Z,2.79
2023-05-05T04:40:17.266Z,2.73
2023-05-05T04:41:17.316Z,2.73
2023-05-05T04:42:17.302Z,2.80
2023-05-05T04:43:17.329Z,2.72
2023-05-05T04:44:17.349Z,2.72
2023-05-05T04:45:17.357Z,2.68
2023-05-05T04:46:17.482Z,2.71
2023-05-05T04:47:17.436Z,2.76
2023-05-05T04:48:17.441Z,2.78
2023-05-05T04:49:17.461Z,2.73
2023-05-05T04:50:17.580Z,2.76
2023-05-05T04:51:17.497Z,2.79
2023-05-05T04:52:17.509Z,2.73
2023-05-05T04:53:17.539Z,2.77
2023-05-05T04:54:17.578Z,2.80
2023-05-05T04:55:17.575Z,2.74
2023-05-05T04:56:17.607Z,2.76
2023-05-05T04:57:17.609Z,2.67
2023-05-05T04:58:17.647Z,2.75
2023-05-05T04:59:17.654Z,2.75
2023-05-05T05:00:17.697Z,2.74
2023-05-05T05:01:17.697Z,2.74
2023-05-05T05:02:17.837Z,2.75
2023-05-05T05:03:17.835Z,2.77
2023-05-05T05:04:17.768Z,2.71
2023-05-05T05:05:17.779Z,2.67
2023-05-05T05:06:17.790Z,2.66
2023-05-05T05:07:17.839Z,2.66
2023-05-05T05:08:17.813Z,2.63
2023-05-05T05:09:17.836Z,2.62
2023-05-05T05:10:17.856Z,2.60
2023-05-05T05:11:17.884Z,2.60
2023-05-05T05:12:17.892Z,2.61
2023-05-05T05:13:18.010Z,2.66
2023-05-05T05:14:17.960Z,2.65
2023-05-05T05:15:17.954Z,2.58
2023-05-05T05:16:18.013Z,2.55
2023-05-05T05:17:17.991Z,2.57
2023-05-05T05:18:18.118Z,2.57
2023-05-05T05:19:18.040Z,2.50
2023-05-05T05:20:18.060Z,2.49
2023-05-05T05:21:18.107Z,2.49
2023-05-05T05:22:18.103Z,2.51
2023-05-05T05:23:18.169Z,2.54
2023-05-05T05:24:18.142Z,2.56
2023-05-05T05:25:18.186Z,2.60
2023-05-05T05:26:18.222Z,2.60
2023-05-05T05:27:18.187Z,2.62
2023-05-05T05:28:18.152Z,2.65
2023-05-05T05:29:18.156Z,2.73
2023-05-05T05:30:18.148Z,2.85
2023-05-05T05:31:18.148Z,2.96
2023-05-05T05:32:18.132Z,3.09
2023-05-05T05:33:18.130Z,3.08
2023-05-05T05:34:18.142Z,3.10
2023-05-05T05:35:18.115Z,3.26
2023-05-05T05:36:18.146Z,3.44
2023-05-05T05:37:18.096Z,3.57
2023-05-05T05:38:18.105Z,3.78
2023-05-05T05:39:18.109Z,4.09
2023-05-05T05:40:18.121Z,4.37
2023-05-05T05:41:18.091Z,4.77
2023-05-05T05:42:18.081Z,5.17
2023-05-05T05:43:18.065Z,5.64
2023-05-05T05:44:18.071Z,6.18
2023-05-05T05:45:18.089Z,6.87
2023-05-05T05:46:18.102Z,7.93
2023-05-05T05:47:18.259Z,8.47
2023-05-05T05:48:18.078Z,8.50
2023-05-05T05:49:18.058Z,9.41
2023-05-05T05:50:18.043Z,10.08
2023-05-05T05:51:18.028Z,9.97
2023-05-05T05:52:18.019Z,9.97
2023-05-05T05:53:18.013Z,9.64
2023-05-05T05:54:18.018Z,6.75
2023-05-05T05:55:18.026Z,4.45
2023-05-05T05:56:17.985Z,3.23
2023-05-05T05:57:18.069Z,2.22
2023-05-05T05:58:17.987Z,1.77
2023-05-05T05:59:17.965Z,1.25
2023-05-05T06:00:17.965Z,1.04
2023-05-05T06:01:18.001Z,0.92
2023-05-05T06:02:18.005Z,0.79
2023-05-05T06:03:18.039Z,0.70
2023-05-05T06:04:18.012Z,0.85
2023-05-05T06:05:17.935Z,0.86
2023-05-05T06:06:17.933Z,0.94
2023-05-05T06:07:17.942Z,1.00
2023-05-05T06:08:17.967Z,0.95
2023-05-05T06:09:17.986Z,0.89
2023-05-05T06:10:27.566Z,0.85
2023-05-05T06:11:19.045Z,0.85
2023-05-05T06:12:17.917Z,0.88
2023-05-05T06:13:17.961Z,0.98
2023-05-05T06:14:18.890Z,1.22
2023-05-05T06:15:17.924Z,1.76
2023-05-05T06:16:17.957Z,1.98
2023-05-05T06:17:17.921Z,2.17
2023-05-05T06:18:18.032Z,2.63
2023-05-05T06:19:17.884Z,3.12
2023-05-05T06:20:17.889Z,3.58
2023-05-05T06:21:17.871Z,4.07
2023-05-05T06:22:17.857Z,4.56
2023-05-05T06:23:17.904Z,5.13
2023-05-05T06:24:17.813Z,5.16
2023-05-05T06:25:17.838Z,5.30
2023-05-05T06:26:17.795Z,5.70
2023-05-05T06:27:17.806Z,6.71
2023-05-05T06:28:17.769Z,8.85
2023-05-05T06:29:17.752Z,10.69
2023-05-05T06:30:17.796Z,12.16
2023-05-05T06:31:17.874Z,14.51
2023-05-05T06:32:17.844Z,16.61
2023-05-05T06:33:17.923Z,18.85
2023-05-05T06:34:17.945Z,21.05
2023-05-05T06:35:17.984Z,23.25
2023-05-05T06:36:18.082Z,25.17
2023-05-05T06:37:18.102Z,26.15
2023-05-05T06:38:18.135Z,28.25
2023-05-05T06:39:18.205Z,30.56
2023-05-05T06:40:18.231Z,31.11
2023-05-05T06:41:18.272Z,33.06
2023-05-05T06:42:18.325Z,35.07
2023-05-05T06:43:18.400Z,36.08
2023-05-05T06:44:18.483Z,36.32
2023-05-05T06:45:18.417Z,36.93
2023-05-05T06:46:18.575Z,37.04
2023-05-05T06:47:18.505Z,37.46
2023-05-05T06:48:18.480Z,37.50
2023-05-05T06:49:18.478Z,37.62
2023-05-05T06:50:18.448Z,37.23
2023-05-05T06:51:18.436Z,37.64
2023-05-05T06:52:18.449Z,37.52
2023-05-05T06:53:18.380Z,37.45
2023-05-05T06:54:19.196Z,37.38
2023-05-05T06:55:18.355Z,37.40
2023-05-05T06:56:18.339Z,35.59
2023-05-05T06:57:18.371Z,33.65
2023-05-05T06:58:18.456Z,32.44
2023-05-05T06:59:18.692Z,32.15
2023-05-05T07:00:18.540Z,34.51
2023-05-05T07:01:18.675Z,32.10
2023-05-05T07:02:19.024Z,28.81
2023-05-05T07:03:19.785Z,30.87
2023-05-05T07:04:18.722Z,32.33
2023-05-05T07:05:18.617Z,31.84
2023-05-05T07:06:18.773Z,29.00
2023-05-05T07:07:18.753Z,27.21
2023-05-05T07:08:18.804Z,27.58
2023-05-05T07:09:19.312Z,28.35
2023-05-05T07:10:18.994Z,27.62
2023-05-05T07:11:19.164Z,26.44
2023-05-05T07:12:19.084Z,26.16
2023-05-05T07:13:19.216Z,24.93
2023-05-05T07:14:20.095Z,24.34
2023-05-05T07:15:27.345Z,23.48
2023-05-05T07:16:20.188Z,23.36
2023-05-05T07:17:19.199Z,22.61
2023-05-05T07:18:19.159Z,21.06
2023-05-05T07:19:19.156Z,20.65
2023-05-05T07:20:19.134Z,20.79
2023-05-05T07:21:19.164Z,20.79
2023-05-05T07:22:19.111Z,19.86
2023-05-05T07:23:19.127Z,19.05
2023-05-05T07:24:19.091Z,19.03
2023-05-05T07:25:19.099Z,18.59
2023-05-05T07:26:19.174Z,18.00
2023-05-05T07:27:19.170Z,16.81
2023-05-05T07:28:19.247Z,17.57
2023-05-05T07:29:19.346Z,16.90
2023-05-05T07:30:19.859Z,16.56
2023-05-05T07:31:19.315Z,16.57
2023-05-05T07:32:19.445Z,16.33
2023-05-05T07:33:19.269Z,16.33
2023-05-05T07:34:19.342Z,16.56
2023-05-05T07:35:19.259Z,16.46
2023-05-05T07:36:19.222Z,15.75
2023-05-05T07:37:19.315Z,16.12
2023-05-05T07:38:19.180Z,15.56
2023-05-05T07:39:19.251Z,14.22
2023-05-05T07:40:19.186Z,14.63
2023-05-05T07:41:19.147Z,15.74
2023-05-05T07:42:19.269Z,15.81
2023-05-05T07:43:19.201Z,15.76
2023-05-05T07:44:19.271Z,15.44
2023-05-05T07:45:19.133Z,6.33
2023-05-05T07:46:19.317Z,5.99
2023-05-05T07:47:19.084Z,2.88
2023-05-05T07:48:19.096Z,2.05
2023-05-05T07:49:19.113Z,2.16
2023-05-05T07:50:19.028Z,1.52
2023-05-05T07:51:19.056Z,1.35
2023-05-05T07:52:21.481Z,1.25
2023-05-05T07:53:20.198Z,0.97
2023-05-05T07:54:19.060Z,0.72
2023-05-05T07:55:18.984Z,0.72
2023-05-05T07:56:20.465Z,0.53
2023-05-05T07:57:18.941Z,0.52
2023-05-05T07:58:19.056Z,0.54
2023-05-05T07:59:19.204Z,0.58
2023-05-05T08:00:19.016Z,0.48
2023-05-05T08:01:19.009Z,0.39
2023-05-05T08:02:19.184Z,0.35
2023-05-05T08:03:19.083Z,0.34
2023-05-05T08:04:19.003Z,0.34
2023-05-05T08:05:18.891Z,0.34
2023-05-05T08:06:18.861Z,0.34
2023-05-05T08:07:18.954Z,0.34
2023-05-05T08:08:19.851Z,0.34
2023-05-05T08:09:18.884Z,0.34
2023-05-05T08:10:18.932Z,0.35
2023-05-05T08:11:18.939Z,0.34
2023-05-05T08:12:18.897Z,0.34
2023-05-05T08:13:19.346Z,0.34
2023-05-05T08:14:18.972Z,0.34
2023-05-05T08:15:19.001Z,0.34
2023-05-05T08:16:18.901Z,0.34
2023-05-05T08:17:18.910Z,0.34
2023-05-05T08:18:18.851Z,0.36
2023-05-05T08:19:28.576Z,0.34
2023-05-05T08:20:19.803Z,0.34
2023-05-05T08:21:18.961Z,0.34
2023-05-05T08:22:18.942Z,0.34
2023-05-05T08:23:18.883Z,0.34
2023-05-05T08:24:18.853Z,0.34
2023-05-05T08:25:18.879Z,0.34
2023-05-05T08:26:18.852Z,0.40
2023-05-05T08:27:18.912Z,0.52
2023-05-05T08:28:18.986Z,0.52
2023-05-05T08:29:18.836Z,0.56
2023-05-05T08:30:18.856Z,0.56
2023-05-05T08:31:18.859Z,0.57
2023-05-05T08:32:18.816Z,0.63
2023-05-05T08:33:18.880Z,0.78
2023-05-05T08:34:18.866Z,0.98
2023-05-05T08:35:18.815Z,1.26
2023-05-05T08:36:18.754Z,1.38
2023-05-05T08:37:18.775Z,1.42
2023-05-05T08:38:18.739Z,1.52
2023-05-05T08:39:18.819Z,1.39
2023-05-05T08:40:18.718Z,1.70
2023-05-05T08:41:18.718Z,1.72
2023-05-05T08:42:32.874Z,1.79
2023-05-05T08:43:18.685Z,1.26
2023-05-05T08:44:18.684Z,0.92
2023-05-05T08:45:18.657Z,0.86
2023-05-05T08:46:18.870Z,1.04
2023-05-05T08:47:18.650Z,1.17
2023-05-05T08:48:18.656Z,1.21
2023-05-05T08:49:18.664Z,0.99
2023-05-05T08:50:18.661Z,0.95
2023-05-05T08:51:18.620Z,1.39
2023-05-05T08:52:18.625Z,1.39
2023-05-05T08:53:18.592Z,1.41
2023-05-05T08:54:18.685Z,1.71
2023-05-05T08:55:18.558Z,2.31
2023-05-05T08:56:18.559Z,3.89
2023-05-05T08:57:18.593Z,5.26
2023-05-05T08:58:18.527Z,7.65
2023-05-05T08:59:18.531Z,7.72
2023-05-05T09:00:18.514Z,8.20
2023-05-05T09:01:18.548Z,9.70
2023-05-05T09:02:18.610Z,7.85
2023-05-05T09:03:18.519Z,8.32
2023-05-05T09:04:18.473Z,7.85
2023-05-05T09:05:18.460Z,8.29
2023-05-05T09:06:18.441Z,9.29
2023-05-05T09:07:18.428Z,11.37
2023-05-05T09:08:18.376Z,14.11
2023-05-05T09:09:18.378Z,15.86
2023-05-05T09:10:18.343Z,17.73
2023-05-05T09:11:18.339Z,20.50
2023-05-05T09:12:18.313Z,18.73
2023-05-05T09:13:18.380Z,20.04
2023-05-05T09:14:18.349Z,19.37
2023-05-05T09:15:18.465Z,14.66
2023-05-05T09:16:18.480Z,16.51
2023-05-05T09:17:18.425Z,15.44
2023-05-05T09:18:18.477Z,16.08
2023-05-05T09:19:18.389Z,15.00
2023-05-05T09:20:18.371Z,15.34
2023-05-05T09:21:18.371Z,17.65
2023-05-05T09:22:18.328Z,15.19
2023-05-05T09:23:18.343Z,12.95
2023-05-05T09:24:18.299Z,10.99
2023-05-05T09:25:18.293Z,13.21
2023-05-05T09:26:18.274Z,13.27
2023-05-05T09:27:18.309Z,12.34
2023-05-05T09:28:18.341Z,15.54
2023-05-05T09:29:18.423Z,17.91
2023-05-05T09:30:18.489Z,19.36
2023-05-05T09:31:18.540Z,23.82
2023-05-05T09:32:18.525Z,25.67
2023-05-05T09:33:18.548Z,24.84
2023-05-05T09:34:18.645Z,29.25
2023-05-05T09:35:18.602Z,32.61
2023-05-05T09:36:18.629Z,36.26
2023-05-05T09:37:18.660Z,36.89
2023-05-05T09:38:18.673Z,36.49
2023-05-05T09:39:18.651Z,36.53
2023-05-05T09:40:18.646Z,37.03
2023-05-05T09:41:18.569Z,38.16
2023-05-05T09:42:18.544Z,38.63
2023-05-05T09:43:19.386Z,34.66
2023-05-05T09:44:18.502Z,38.26
2023-05-05T09:45:18.596Z,47.38
2023-05-05T09:46:18.487Z,56.28
2023-05-05T09:47:29.080Z,45.67
2023-05-05T09:48:19.423Z,42.62
2023-05-05T09:49:18.480Z,39.52
2023-05-05T09:50:18.976Z,42.12
2023-05-05T09:51:18.491Z,46.84
2023-05-05T09:52:18.307Z,57.97
2023-05-05T09:53:18.285Z,66.72
2023-05-05T09:54:18.336Z,74.61
2023-05-05T09:55:18.272Z,86.00
2023-05-05T09:56:18.252Z,102.74
2023-05-05T09:57:18.212Z,123.63
2023-05-05T09:58:18.217Z,158.93
2023-05-05T09:59:18.163Z,185.98
2023-05-05T10:00:18.128Z,211.13
2023-05-05T10:01:18.148Z,234.91
2023-05-05T10:02:18.093Z,210.68
2023-05-05T10:03:18.163Z,199.43
2023-05-05T10:04:18.051Z,190.08
2023-05-05T10:05:18.106Z,190.04
2023-05-05T10:06:18.104Z,203.02
2023-05-05T10:07:17.993Z,236.91
2023-05-05T10:08:17.986Z,309.87
2023-05-05T10:09:17.924Z,311.59
2023-05-05T10:10:17.936Z,269.54
2023-05-05T10:11:17.891Z,275.37
2023-05-05T10:12:17.905Z,341.14
2023-05-05T10:13:17.889Z,410.99
2023-05-05T10:14:17.839Z,480.84
2023-05-05T10:15:17.873Z,560.46
2023-05-05T10:16:17.838Z,591.88
2023-05-05T10:17:17.756Z,644.49
2023-05-05T10:18:17.755Z,735.26
2023-05-05T10:19:17.731Z,822.61
2023-05-05T10:20:17.946Z,915.64
2023-05-05T10:21:17.714Z,948.14
2023-05-05T10:22:17.784Z,1000.00
2023-05-05T10:23:17.705Z,1000.00
2023-05-05T10:24:17.710Z,1000.00
2023-05-05T10:25:17.727Z,1000.00
2023-05-05T10:26:17.695Z,1000.00
2023-05-05T10:27:17.680Z,1000.00
2023-05-05T10:28:17.660Z,1000.00
2023-05-05T10:29:17.662Z,1000.00
2023-05-05T10:30:17.679Z,1000.00
2023-05-05T10:31:25.672Z,1000.00
2023-05-05T10:32:46.674Z,1000.00
2023-05-05T10:34:18.598Z,1000.00
2023-05-05T10:35:17.537Z,1000.00
2023-05-05T10:36:17.566Z,1000.00
2023-05-05T10:37:17.468Z,1000.00
2023-05-05T10:38:17.477Z,1000.00
2023-05-05T10:39:17.400Z,1000.00
2023-05-05T10:40:17.361Z,1000.00
2023-05-05T10:41:17.338Z,1000.00
2023-05-05T10:42:17.341Z,1000.00
2023-05-05T10:43:17.280Z,1000.00
2023-05-05T10:44:17.314Z,1000.00
2023-05-05T10:45:17.253Z,1000.00
2023-05-05T10:46:17.215Z,1000.00
2023-05-05T10:47:17.148Z,1000.00
2023-05-05T10:48:17.191Z,1000.00
2023-05-05T10:49:17.081Z,1000.00
2023-05-05T10:50:17.039Z,1000.00
2023-05-05T10:51:27.394Z,1000.00
2023-05-05T10:52:16.986Z,1000.00
2023-05-05T10:53:16.943Z,1000.00
2023-05-05T10:54:17.086Z,1000.00
2023-05-05T10:55:16.995Z,1000.00
2023-05-05T10:56:16.837Z,1000.00
2023-05-05T10:57:16.839Z,1000.00
2023-05-05T10:58:16.774Z,1000.00
2023-05-05T10:59:16.740Z,1000.00
2023-05-05T11:00:16.712Z,1000.00
2023-05-05T11:01:16.721Z,1000.00
2023-05-05T11:02:16.640Z,1000.00
2023-05-05T11:03:16.697Z,1000.00
2023-05-05T11:04:16.583Z,1000.00
2023-05-05T11:05:16.560Z,1000.00
2023-05-05T11:06:16.503Z,1000.00
2023-05-05T11:07:16.467Z,1000.00
2023-05-05T11:08:16.453Z,1000.00
2023-05-05T11:09:16.411Z,1000.00
2023-05-05T11:10:16.517Z,1000.00
2023-05-05T11:11:16.350Z,1000.00
2023-05-05T11:12:16.351Z,1000.00
2023-05-05T11:13:16.374Z,1000.00
2023-05-05T11:14:16.306Z,1000.00
2023-05-05T11:15:16.285Z,1000.00
2023-05-05T11:16:16.328Z,1000.00
2023-05-05T11:17:16.187Z,662.77
2023-05-05T11:18:16.190Z,100.20
2023-05-05T11:19:16.122Z,51.19
2023-05-05T11:20:16.085Z,58.85
2023-05-05T11:21:16.096Z,69.66
2023-05-05T11:22:16.013Z,70.11
2023-05-05T11:23:16.704Z,70.50
2023-05-05T11:24:15.945Z,74.07
2023-05-05T11:25:15.926Z,82.89
2023-05-05T11:26:15.926Z,99.98
2023-05-05T11:27:15.849Z,142.95
2023-05-05T11:28:15.867Z,167.86
2023-05-05T11:29:15.834Z,176.48
2023-05-05T11:30:15.784Z,196.57
2023-05-05T11:31:15.814Z,216.04
2023-05-05T11:32:15.838Z,237.87
2023-05-05T11:33:15.655Z,260.66
2023-05-05T11:34:15.623Z,284.49
2023-05-05T11:35:15.599Z,280.24
2023-05-05T11:36:15.592Z,281.11
2023-05-05T11:37:15.548Z,289.54
2023-05-05T11:38:15.529Z,320.47
2023-05-05T11:39:15.477Z,378.49
2023-05-05T11:40:15.456Z,439.23
2023-05-05T11:41:15.413Z,369.64
2023-05-05T11:42:15.475Z,295.68
2023-05-05T11:43:15.363Z,249.95
2023-05-05T11:44:15.345Z,264.77
2023-05-05T11:45:15.303Z,277.73
2023-05-05T11:46:15.291Z,270.32
2023-05-05T11:47:15.208Z,271.28
2023-05-05T11:48:15.217Z,277.58
2023-05-05T11:49:15.149Z,251.61
2023-05-05T11:50:15.106Z,208.04
2023-05-05T11:51:15.068Z,210.10
2023-05-05T11:52:15.037Z,203.15
2023-05-05T11:53:14.997Z,174.69
2023-05-05T11:54:14.971Z,150.26
2023-05-05T11:55:14.940Z,145.30
2023-05-05T11:56:14.905Z,140.95
2023-05-05T11:57:14.878Z,126.41
2023-05-05T11:58:15.006Z,116.10
2023-05-05T11:59:14.809Z,113.22
2023-05-05T12:00:14.780Z,108.53
2023-05-05T12:01:14.742Z,124.37
2023-05-05T12:02:14.727Z,126.78
2023-05-05T12:03:14.749Z,125.31
2023-05-05T12:04:14.755Z,130.25
2023-05-05T12:05:14.631Z,142.39
2023-05-05T12:06:14.595Z,146.14
2023-05-05T12:07:14.565Z,135.39
2023-05-05T12:08:14.568Z,135.06
2023-05-05T12:09:14.516Z,139.25
2023-05-05T12:10:14.487Z,144.04
2023-05-05T12:11:14.461Z,135.89
2023-05-05T12:12:14.423Z,127.96
2023-05-05T12:13:14.443Z,128.34
2023-05-05T12:14:14.437Z,131.06
2023-05-05T12:15:14.372Z,139.31
2023-05-05T12:16:14.370Z,155.37
2023-05-05T12:17:14.297Z,178.38
2023-05-05T12:18:14.268Z,176.69
2023-05-05T12:19:14.227Z,168.47
2023-05-05T12:20:14.278Z,163.35
2023-05-05T12:21:14.191Z,164.64
2023-05-05T12:22:14.160Z,157.35
2023-05-05T12:23:14.124Z,149.33
2023-05-05T12:24:14.099Z,136.96
2023-05-05T12:25:14.074Z,135.86
2023-05-05T12:26:14.029Z,136.03
2023-05-05T12:27:14.021Z,132.58
2023-05-05T12:28:13.988Z,124.50
2023-05-05T12:29:13.972Z,116.73
2023-05-05T12:30:14.121Z,121.71
2023-05-05T12:31:13.990Z,119.03
2023-05-05T12:32:14.129Z,106.35
2023-05-05T12:33:13.844Z,97.10
2023-05-05T12:34:13.817Z,93.24
2023-05-05T12:35:13.802Z,90.92
2023-05-05T12:36:13.771Z,85.48
2023-05-05T12:37:13.750Z,89.13
2023-05-05T12:38:13.727Z,87.55
2023-05-05T12:39:13.693Z,84.74
2023-05-05T12:40:13.678Z,84.53
2023-05-05T12:41:13.639Z,84.12
2023-05-05T12:42:13.634Z,84.00
2023-05-05T12:43:13.644Z,82.52
2023-05-05T12:44:13.556Z,83.38
2023-05-05T12:45:13.537Z,83.47
2023-05-05T12:46:13.567Z,84.03
2023-05-05T12:47:13.474Z,85.19
2023-05-05T12:48:13.447Z,89.46
2023-05-05T12:49:13.433Z,93.67
2023-05-05T12:50:13.418Z,92.92
2023-05-05T12:51:13.367Z,96.05
2023-05-05T12:52:13.357Z,102.63
2023-05-05T12:53:13.317Z,103.99
2023-05-05T12:54:13.307Z,105.81
2023-05-05T12:55:13.310Z,110.88
2023-05-05T12:56:13.239Z,112.00
2023-05-05T12:57:13.300Z,116.69
2023-05-05T12:58:13.187Z,113.27
2023-05-05T12:59:13.154Z,120.81
2023-05-05T13:00:13.178Z,109.95
2023-05-05T13:01:13.137Z,109.82